Cleveland, OH

7:29 PM EDT on June 26, 2017 (GMT -0400)
Burke Lakefront | | Change Station
Active Advisory: Beach Hazard Statement

Elev 581 ft 41.52 °N, 81.68 °W | Updated 12 minutes ago

Scattered Clouds
Scattered Clouds
70 °F
Feels Like 70 °F
N
7
Wind Variable Wind from West

Today
High -- | Low -- °F
--% Chance of Precip.
Yesterday
High -- | Low -- °F
Precip. -- in
Pressure 29.98 in
Visibility 10.0 miles
Clouds Scattered Clouds 11000 ft
Dew Point 51 °F
Humidity 51%
Rainfall 0.00 in
Snow Depth Not available.
5:54 AM 9:04 PM
Waxing Crescent, 12% visible
SPECI KBKL 262317Z 27006KT 10SM VCTS SCT110 21/11 A2998 RMK AO2 LTG DSNT S T02110106
Pressure 29.98 in
Visibility 10.0 miles
Clouds Scattered Clouds 11000 ft
Dew Point 51 °F
Humidity 51%
Rainfall 0.00 in
Snow Depth Not available.
5:54 AM 9:04 PM
Waxing Crescent, 12% visible
SPECI KBKL 262317Z 27006KT 10SM VCTS SCT110 21/11 A2998 RMK AO2 LTG DSNT S T02110106

Get Your Daily Forecast Email!

Thanks for signing up!

Be on the lookout for a verification email in your inbox.

You'll start receiving severe weather alerts in your inbox..

×

10-Day Weather Forecast

Almanac

Astronomy

Jun. 26, 2017 Rise Set
Actual Time
Civil Twilight
Nautical Twilight
Astronomical Twilight
Moon
Length of Visible Light
Length of Day
Tomorrow will be .
, % of the Moon is Illuminated

Today's Extremes

State Highs State Lows

Community

WunderPhotos

Category 6

Welcome to Category 6. This is the collective home for Weather Underground's featured writeups by Dr. Jeff Masters (right), Bob Henson (left), Chris Burt, and other regular contributors.

Nearby

Air Quality

  Air Quality AQ Index Pollutant
Not available.

Snow Depth

Station Depth Elevation

Earthquake Activity

City Distance Mag. Time & Date
Minimum magnitude displayed is 2.5.

Coastal Water Temperatures

Place Temperature

Stations

Nearby Weather Stations

Station Location Temp. Windchill Dew Point Humidity Wind Precip. Elev Updated Type
                   

Watches & Warnings

Beach Hazard Statement
Issued: 4:05 PM EDT Jun. 26, 2017 – National Weather Service

... Beach hazards statement remains in effect until 10 PM EDT this
evening...

* hazards... high swimming risk due to waves and current.

* Timing... now through this evening.

* Location... Avon Point east to Ripley New York.

Precautionary/preparedness actions...

A beach hazards statement is issued when swimming risks exist
from a combination of wind and large waves including rip currents
and longshore currents. These swimming risks can create life-
threatening conditions even for good swimmers. Follow the
instruction of local authorities or stay out of the water.